SVP EDDN-EDDN

Flight info

Callsign SVP
Flight time 0h 51m
Altitude
Route
Aircraft P28A

Departure

Time 2026-05-01 14:07
Airport Nuremberg Airport (EDDN)

Arrival

Time 2026-05-01 14:58
Airport Nuremberg Airport (EDDN)
Time Latitude Longitude Altitude Speed Heading
2026-05-01 13:44 49.49506 11.07982 1049 ft 0 kts 187°
2026-05-01 13:48 49.49505 11.07982 1049 ft 0 kts 187°
2026-05-01 13:50 49.49503 11.07982 1049 ft 0 kts 187°
2026-05-01 13:50 49.49503 11.07981 1049 ft 0 kts 186°
2026-05-01 13:50 49.49502 11.07981 1049 ft 1 kts 187°
2026-05-01 13:51 49.49500 11.07981 1049 ft 0 kts 191°
2026-05-01 13:51 49.49495 11.07978 1049 ft 0 kts 203°
2026-05-01 13:51 49.49494 11.07977 1049 ft 0 kts 202°
2026-05-01 13:52 49.49491 11.07976 1049 ft 3 kts 194°
2026-05-01 13:52 49.49487 11.07975 1049 ft 0 kts 184°
2026-05-01 13:52 49.49485 11.07975 1049 ft 0 kts 182°
2026-05-01 13:52 49.49482 11.07975 1049 ft 1 kts 176°
2026-05-01 13:53 49.49480 11.07975 1049 ft 0 kts 172°
2026-05-01 13:53 49.49479 11.07975 1049 ft 0 kts 172°
2026-05-01 13:53 49.49476 11.07978 1049 ft 4 kts 132°
2026-05-01 13:54 49.49499 11.07980 1049 ft 4 kts 358°
2026-05-01 13:54 49.49511 11.07983 1049 ft 0 kts 10°
2026-05-01 13:55 49.49546 11.07993 1049 ft 7 kts
2026-05-01 13:55 49.49564 11.07955 1049 ft 4 kts 275°
2026-05-01 13:55 49.49566 11.07934 1049 ft 4 kts 276°
2026-05-01 13:56 49.49576 11.07821 1049 ft 12 kts 278°
2026-05-01 13:56 49.49581 11.07786 1049 ft 3 kts 310°
2026-05-01 13:56 49.49617 11.07778 1049 ft 9 kts 357°
2026-05-01 13:56 49.49673 11.07741 1049 ft 12 kts 290°
2026-05-01 13:57 49.49687 11.07644 1049 ft 7 kts 295°
2026-05-01 13:57 49.49693 11.07577 1049 ft 5 kts 276°
2026-05-01 13:57 49.49697 11.07530 1049 ft 6 kts 278°
2026-05-01 13:57 49.49706 11.07431 1049 ft 12 kts 278°
2026-05-01 13:58 49.49722 11.07279 1049 ft 11 kts 277°
2026-05-01 13:58 49.49735 11.07153 1049 ft 10 kts 287°
2026-05-01 13:58 49.49774 11.07094 1049 ft 4 kts 329°
2026-05-01 13:58 49.49779 11.07090 1049 ft 0 kts 332°
2026-05-01 14:02 49.49781 11.07088 1049 ft 1 kts 330°
2026-05-01 14:02 49.49809 11.07062 1049 ft 10 kts 327°
2026-05-01 14:03 49.49882 11.07007 1049 ft 10 kts 355°
2026-05-01 14:03 49.49944 11.07017 1049 ft 6 kts 36°
2026-05-01 14:03 49.49949 11.07034 1049 ft 2 kts 88°
2026-05-01 14:03 49.49941 11.07073 1049 ft 2 kts 98°
2026-05-01 14:04 49.49941 11.07075 1049 ft 0 kts 98°
2026-05-01 14:05 49.49939 11.07106 1049 ft 17 kts 97°
2026-05-01 14:05 49.49904 11.07461 1049 ft 48 kts 99°
2026-05-01 14:05 49.49841 11.08093 1056 ft 68 kts 96°
2026-05-01 14:05 49.49760 11.08838 1091 ft 73 kts 96°
2026-05-01 14:06 49.49692 11.09585 1198 ft 66 kts 94°
2026-05-01 14:06 49.49611 11.10278 1260 ft 66 kts 98°
2026-05-01 14:06 49.49532 11.10991 1336 ft 71 kts 94°
2026-05-01 14:06 49.49458 11.11756 1493 ft 75 kts 94°
2026-05-01 14:07 49.49313 11.12565 1646 ft 81 kts 116°
2026-05-01 14:07 49.48842 11.13079 1782 ft 88 kts 159°
2026-05-01 14:07 49.48224 11.13237 1953 ft 93 kts 174°
2026-05-01 14:08 49.46945 11.12822 2093 ft 99 kts 211°
2026-05-01 14:08 49.46495 11.12038 2187 ft 95 kts 239°
2026-05-01 14:08 49.46374 11.11043 2239 ft 98 kts 270°
2026-05-01 14:08 49.46527 11.09991 2127 ft 103 kts 291°
2026-05-01 14:09 49.46760 11.09012 2105 ft 95 kts 287°
2026-05-01 14:09 49.46951 11.08027 2028 ft 94 kts 285°
2026-05-01 14:09 49.47141 11.07098 2001 ft 92 kts 287°
2026-05-01 14:09 49.47350 11.06166 1991 ft 90 kts 289°
2026-05-01 14:10 49.47578 11.05277 2019 ft 89 kts 291°
2026-05-01 14:10 49.47801 11.04373 1966 ft 88 kts 288°
2026-05-01 14:10 49.48002 11.03509 1830 ft 86 kts 291°
2026-05-01 14:10 49.48274 11.02669 1665 ft 89 kts 309°
2026-05-01 14:11 49.48786 11.02167 1544 ft 87 kts 344°
2026-05-01 14:11 49.49883 11.02326 1424 ft 76 kts 14°
2026-05-01 14:11 49.50326 11.02726 1373 ft 75 kts 46°
2026-05-01 14:12 49.50343 11.03513 1292 ft 81 kts 106°
2026-05-01 14:12 49.50208 11.04340 1245 ft 76 kts 98°
2026-05-01 14:12 49.50134 11.05125 1164 ft 74 kts 97°
2026-05-01 14:12 49.50057 11.05901 1066 ft 73 kts 97°
2026-05-01 14:13 49.49991 11.06577 1049 ft 63 kts 98°
2026-05-01 14:13 49.49940 11.07105 1068 ft 82 kts 95°
2026-05-01 14:13 49.49811 11.08324 1295 ft 87 kts 97°
2026-05-01 14:13 49.49712 11.09237 1495 ft 88 kts 96°
2026-05-01 14:14 49.49625 11.10200 1666 ft 93 kts 99°
2026-05-01 14:14 49.49326 11.11074 1852 ft 94 kts 128°
2026-05-01 14:14 49.48806 11.11704 2025 ft 95 kts 145°
2026-05-01 14:14 49.48166 11.12014 2032 ft 97 kts 171°
2026-05-01 14:15 49.47503 11.11996 2028 ft 98 kts 189°
2026-05-01 14:15 49.46920 11.11482 2004 ft 98 kts 227°
2026-05-01 14:15 49.46658 11.10577 2034 ft 95 kts 259°
2026-05-01 14:15 49.46713 11.09551 2020 ft 96 kts 282°
2026-05-01 14:16 49.46918 11.08592 2052 ft 94 kts 288°
2026-05-01 14:16 49.47153 11.07647 2051 ft 95 kts 290°
2026-05-01 14:16 49.47379 11.06695 2071 ft 94 kts 286°
2026-05-01 14:16 49.47538 11.05717 2076 ft 94 kts 282°
2026-05-01 14:17 49.47675 11.04736 2058 ft 92 kts 280°
2026-05-01 14:17 49.47790 11.03812 1988 ft 86 kts 281°
2026-05-01 14:17 49.47920 11.02946 1877 ft 83 kts 285°
2026-05-01 14:17 49.48242 11.02230 1731 ft 83 kts 320°
2026-05-01 14:18 49.48767 11.01897 1603 ft 82 kts 350°
2026-05-01 14:18 49.49325 11.01889 1508 ft 78 kts
2026-05-01 14:18 49.49834 11.02094 1441 ft 73 kts 16°
2026-05-01 14:18 49.50146 11.02301 1418 ft 71 kts 30°
2026-05-01 14:19 49.50356 11.03199 1331 ft 78 kts 100°
2026-05-01 14:19 49.50242 11.04029 1281 ft 79 kts 97°
2026-05-01 14:19 49.50166 11.04831 1203 ft 73 kts 97°
2026-05-01 14:19 49.50088 11.05598 1108 ft 72 kts 97°
2026-05-01 14:20 49.50015 11.06330 1050 ft 63 kts 98°
2026-05-01 14:20 49.49865 11.07841 1123 ft 90 kts 95°
2026-05-01 14:20 49.49794 11.08796 1334 ft 89 kts 94°
2026-05-01 14:21 49.49701 11.09751 1521 ft 92 kts 96°
2026-05-01 14:21 49.49608 11.10731 1731 ft 93 kts 96°
2026-05-01 14:21 49.49506 11.11718 1916 ft 95 kts 100°
2026-05-01 14:22 49.48407 11.12625 1955 ft 97 kts 185°
2026-05-01 14:22 49.47768 11.12402 2008 ft 93 kts 195°
2026-05-01 14:22 49.47222 11.11926 2058 ft 90 kts 220°
2026-05-01 14:22 49.46955 11.11042 2003 ft 97 kts 262°
2026-05-01 14:23 49.46967 11.10009 2024 ft 95 kts 277°
2026-05-01 14:23 49.47140 11.09033 2043 ft 95 kts 285°
2026-05-01 14:23 49.47355 11.08064 2036 ft 97 kts 288°
2026-05-01 14:23 49.47575 11.07061 2023 ft 99 kts 287°
2026-05-01 14:24 49.47773 11.06055 2027 ft 99 kts 286°
2026-05-01 14:24 49.47971 11.05073 2064 ft 94 kts 285°
2026-05-01 14:24 49.48146 11.04124 2061 ft 93 kts 281°
2026-05-01 14:24 49.48094 11.03119 2011 ft 96 kts 249°
2026-05-01 14:25 49.47706 11.02327 2030 ft 91 kts 219°
2026-05-01 14:25 49.47138 11.01877 1994 ft 95 kts 195°
2026-05-01 14:25 49.46505 11.01858 2030 ft 89 kts 166°
2026-05-01 14:25 49.45964 11.02342 1990 ft 93 kts 135°
2026-05-01 14:26 49.45633 11.03166 2019 ft 89 kts 108°
2026-05-01 14:26 49.45729 11.05037 2027 ft 88 kts 64°
2026-05-01 14:26 49.46088 11.05787 2042 ft 87 kts 42°
2026-05-01 14:27 49.46611 11.06291 2016 ft 91 kts 21°
2026-05-01 14:27 49.47225 11.06357 2017 ft 91 kts 345°
2026-05-01 14:27 49.47735 11.05760 1940 ft 97 kts 303°
2026-05-01 14:28 49.48102 11.03903 2014 ft 86 kts 265°
2026-05-01 14:28 49.47840 11.03121 2041 ft 84 kts 220°
2026-05-01 14:28 49.47328 11.03153 2039 ft 82 kts 128°
2026-05-01 14:28 49.47416 11.03913 2064 ft 78 kts 37°
2026-05-01 14:29 49.47959 11.03936 2016 ft 87 kts 332°
2026-05-01 14:29 49.48320 11.03184 1980 ft 91 kts 290°
2026-05-01 14:30 49.48885 11.00452 2016 ft 87 kts 287°
2026-05-01 14:30 49.49101 10.99572 2020 ft 88 kts 289°
2026-05-01 14:30 49.49392 10.98750 1996 ft 87 kts 312°
2026-05-01 14:31 49.49943 10.97351 2056 ft 81 kts 259°
2026-05-01 14:31 49.49586 10.96724 2050 ft 86 kts 199°
2026-05-01 14:31 49.49049 10.96962 2062 ft 85 kts 129°
2026-05-01 14:31 49.49045 10.97908 1852 ft 103 kts 59°
2026-05-01 14:32 49.49512 10.98689 1859 ft 91 kts 44°
2026-05-01 14:32 49.49950 10.99288 1818 ft 79 kts 36°
2026-05-01 14:32 49.50322 10.99833 1742 ft 73 kts 53°
2026-05-01 14:32 49.50516 11.00539 1645 ft 72 kts 76°
2026-05-01 14:33 49.50496 11.01323 1540 ft 76 kts 96°
2026-05-01 14:33 49.50424 11.02132 1505 ft 77 kts 96°
2026-05-01 14:33 49.50343 11.02956 1455 ft 78 kts 96°
2026-05-01 14:33 49.50265 11.03788 1381 ft 79 kts 97°
2026-05-01 14:34 49.50185 11.04638 1277 ft 81 kts 98°
2026-05-01 14:34 49.50100 11.05490 1147 ft 80 kts 98°
2026-05-01 14:34 49.50017 11.06313 1052 ft 70 kts 98°
2026-05-01 14:34 49.49950 11.07001 1049 ft 75 kts 100°
2026-05-01 14:35 49.49865 11.07901 1133 ft 91 kts 95°
2026-05-01 14:35 49.49772 11.08872 1304 ft 90 kts 98°
2026-05-01 14:35 49.49470 11.09661 1437 ft 89 kts 143°
2026-05-01 14:35 49.48870 11.09903 1542 ft 92 kts 176°
2026-05-01 14:36 49.48208 11.09841 1711 ft 95 kts 189°
2026-05-01 14:36 49.47729 11.09243 1912 ft 90 kts 235°
2026-05-01 14:36 49.47583 11.08271 2022 ft 97 kts 267°
2026-05-01 14:36 49.47701 11.07257 2068 ft 97 kts 282°
2026-05-01 14:37 49.47805 11.06259 2098 ft 94 kts 275°
2026-05-01 14:37 49.47882 11.05232 2055 ft 97 kts 275°
2026-05-01 14:37 49.47938 11.04218 2077 ft 94 kts 273°
2026-05-01 14:37 49.47986 11.03210 2050 ft 95 kts 272°
2026-05-01 14:38 49.48039 11.02242 2002 ft 85 kts 276°
2026-05-01 14:38 49.48316 11.01501 1897 ft 81 kts 315°
2026-05-01 14:38 49.48825 11.01184 1774 ft 79 kts 353°
2026-05-01 14:38 49.49375 11.01158 1670 ft 86 kts 339°
2026-05-01 14:39 49.49646 11.00318 1722 ft 98 kts 263°
2026-05-01 14:39 49.49299 10.99444 1883 ft 98 kts 218°
2026-05-01 14:39 49.48667 10.99100 2029 ft 99 kts 182°
2026-05-01 14:39 49.48001 10.99349 2048 ft 100 kts 152°
2026-05-01 14:40 49.47612 11.00127 2071 ft 96 kts 88°
2026-05-01 14:40 49.48133 11.00713 1866 ft 102 kts
2026-05-01 14:40 49.48764 11.00712 1826 ft 84 kts 357°
2026-05-01 14:40 49.49307 11.00887 1727 ft 79 kts 18°
2026-05-01 14:41 49.49822 11.01203 1611 ft 79 kts 23°
2026-05-01 14:41 49.50273 11.01656 1521 ft 76 kts 43°
2026-05-01 14:41 49.50422 11.02409 1413 ft 80 kts 97°
2026-05-01 14:41 49.50313 11.03269 1347 ft 79 kts 98°
2026-05-01 14:42 49.50263 11.03819 1305 ft 78 kts 96°
2026-05-01 14:42 49.50187 11.04619 1244 ft 74 kts 97°
2026-05-01 14:42 49.50105 11.05425 1154 ft 76 kts 98°
2026-05-01 14:42 49.50051 11.05958 1074 ft 76 kts 98°
2026-05-01 14:43 49.49980 11.06682 1049 ft 60 kts 97°
2026-05-01 14:43 49.49913 11.07464 1049 ft 59 kts 93°
2026-05-01 14:43 49.49884 11.07922 1054 ft 67 kts 97°
2026-05-01 14:43 49.49760 11.08894 1088 ft 73 kts 97°
2026-05-01 14:44 49.49707 11.09418 1111 ft 75 kts 96°
2026-05-01 14:44 49.49658 11.10972 1255 ft 70 kts 69°
2026-05-01 14:44 49.49994 11.11471 1389 ft 73 kts 18°
2026-05-01 14:45 49.50513 11.11314 1498 ft 86 kts 319°
2026-05-01 14:45 49.50968 11.09499 1840 ft 94 kts 279°
2026-05-01 14:45 49.51081 11.08505 2004 ft 95 kts 277°
2026-05-01 14:46 49.51170 11.07496 2104 ft 97 kts 275°
2026-05-01 14:46 49.51317 11.05455 2108 ft 95 kts 275°
2026-05-01 14:46 49.51402 11.04454 2117 ft 93 kts 276°
2026-05-01 14:47 49.51227 11.03565 2104 ft 92 kts 219°
2026-05-01 14:47 49.50627 11.03534 2086 ft 91 kts 148°
2026-05-01 14:47 49.50373 11.04376 2061 ft 93 kts 86°
2026-05-01 14:48 49.51340 11.05388 2017 ft 94 kts 355°
2026-05-01 14:48 49.51985 11.05208 1996 ft 95 kts 352°
2026-05-01 14:48 49.52725 11.06549 1998 ft 88 kts 67°
2026-05-01 14:49 49.52542 11.08217 1977 ft 91 kts 142°
2026-05-01 14:49 49.51454 11.07678 1883 ft 95 kts 244°
2026-05-01 14:50 49.51795 11.06358 1936 ft 86 kts 331°
2026-05-01 14:50 49.52922 11.07143 1952 ft 86 kts 69°
2026-05-01 14:51 49.52918 11.07988 1976 ft 85 kts 103°
2026-05-01 14:51 49.52227 11.09379 1912 ft 93 kts 144°
2026-05-01 14:52 49.51170 11.08834 1833 ft 93 kts 250°
2026-05-01 14:52 49.51169 11.07839 1806 ft 94 kts 277°
2026-05-01 14:52 49.51511 11.05942 1831 ft 92 kts 292°
2026-05-01 14:53 49.51860 11.05114 1813 ft 93 kts 305°
2026-05-01 14:53 49.52383 11.04672 1846 ft 89 kts 354°
2026-05-01 14:53 49.52951 11.04930 1930 ft 79 kts 26°
2026-05-01 14:53 49.53393 11.05463 1943 ft 83 kts 46°
2026-05-01 14:54 49.53712 11.06203 1969 ft 84 kts 67°
2026-05-01 14:54 49.53680 11.06935 1952 ft 87 kts 111°
2026-05-01 14:55 49.53606 11.07137 1948 ft 88 kts 120°
2026-05-01 14:55 49.53217 11.07701 1921 ft 92 kts 151°
2026-05-01 14:56 49.52609 11.07780 1893 ft 94 kts 188°
2026-05-01 14:56 49.52080 11.07279 1918 ft 91 kts 229°
2026-05-01 14:56 49.51849 11.06379 1914 ft 91 kts 261°
2026-05-01 14:56 49.51804 11.05447 1898 ft 91 kts 253°
2026-05-01 14:57 49.51460 11.04671 1801 ft 89 kts 234°
2026-05-01 14:57 49.50423 11.04249 1538 ft 76 kts 139°
2026-05-01 14:57 49.50170 11.04952 1289 ft 74 kts 108°
2026-05-01 14:58 49.50074 11.05707 1091 ft 71 kts 97°
2026-05-01 14:58 49.50010 11.06370 1049 ft 45 kts 101°
2026-05-01 14:58 49.49957 11.06496 1049 ft 7 kts 194°
2026-05-01 14:58 49.49943 11.06493 1049 ft 0 kts 185°
2026-05-01 15:02 49.49942 11.06492 1049 ft 2 kts 184°
2026-05-01 15:02 49.49923 11.06494 1049 ft 0 kts 168°
2026-05-01 15:08 49.49916 11.06498 1049 ft 6 kts 160°
2026-05-01 15:08 49.49870 11.06544 1049 ft 4 kts 147°
2026-05-01 15:09 49.49866 11.06549 1049 ft 0 kts 146°